sensor_id;sensor_type;location;lat;lon;timestamp;P1;durP1;ratioP1;P2;durP2;ratioP2
42972;SDS011;28610;51.214;6.962;2022-12-24T00:00:15;38.43;;;5.70;;
42972;SDS011;28610;51.214;6.962;2022-12-24T00:03:01;33.87;;;5.63;;
42972;SDS011;28610;51.214;6.962;2022-12-24T00:05:47;26.33;;;5.60;;
42972;SDS011;28610;51.214;6.962;2022-12-24T00:08:32;26.70;;;5.30;;
42972;SDS011;28610;51.214;6.962;2022-12-24T00:11:18;29.30;;;5.20;;
42972;SDS011;28610;51.214;6.962;2022-12-24T00:14:04;32.87;;;5.80;;
42972;SDS011;28610;51.214;6.962;2022-12-24T00:16:51;35.10;;;6.77;;
42972;SDS011;28610;51.214;6.962;2022-12-24T00:19:37;29.93;;;5.50;;
42972;SDS011;28610;51.214;6.962;2022-12-24T00:22:22;28.60;;;5.23;;
42972;SDS011;28610;51.214;6.962;2022-12-24T00:25:08;30.27;;;6.00;;
42972;SDS011;28610;51.214;6.962;2022-12-24T00:27:54;30.53;;;5.80;;
42972;SDS011;28610;51.214;6.962;2022-12-24T00:30:40;30.53;;;6.30;;
42972;SDS011;28610;51.214;6.962;2022-12-24T00:33:27;33.17;;;6.30;;
42972;SDS011;28610;51.214;6.962;2022-12-24T00:36:13;29.13;;;5.10;;
42972;SDS011;28610;51.214;6.962;2022-12-24T00:38:59;35.30;;;6.00;;
42972;SDS011;28610;51.214;6.962;2022-12-24T00:41:44;36.53;;;5.97;;
42972;SDS011;28610;51.214;6.962;2022-12-24T00:44:30;28.07;;;5.40;;
42972;SDS011;28610;51.214;6.962;2022-12-24T00:47:15;34.77;;;5.93;;
42972;SDS011;28610;51.214;6.962;2022-12-24T00:50:02;29.97;;;6.00;;
42972;SDS011;28610;51.214;6.962;2022-12-24T00:52:48;30.53;;;5.73;;
42972;SDS011;28610;51.214;6.962;2022-12-24T00:55:34;34.70;;;6.10;;
42972;SDS011;28610;51.214;6.962;2022-12-24T00:58:20;35.10;;;6.27;;
42972;SDS011;28610;51.214;6.962;2022-12-24T01:01:06;34.70;;;6.30;;
42972;SDS011;28610;51.214;6.962;2022-12-24T01:03:52;39.63;;;6.13;;
42972;SDS011;28610;51.214;6.962;2022-12-24T01:06:59;34.10;;;5.93;;
42972;SDS011;28610;51.214;6.962;2022-12-24T01:09:43;39.77;;;7.27;;
42972;SDS011;28610;51.214;6.962;2022-12-24T01:12:29;36.10;;;5.87;;
42972;SDS011;28610;51.214;6.962;2022-12-24T01:15:15;26.73;;;5.70;;
42972;SDS011;28610;51.214;6.962;2022-12-24T01:18:01;48.53;;;7.33;;
42972;SDS011;28610;51.214;6.962;2022-12-24T01:20:53;46.07;;;6.97;;
42972;SDS011;28610;51.214;6.962;2022-12-24T01:23:40;42.07;;;7.47;;
42972;SDS011;28610;51.214;6.962;2022-12-24T01:26:26;37.93;;;6.83;;
42972;SDS011;28610;51.214;6.962;2022-12-24T01:29:11;43.93;;;6.57;;
42972;SDS011;28610;51.214;6.962;2022-12-24T01:31:57;46.13;;;6.27;;
42972;SDS011;28610;51.214;6.962;2022-12-24T01:34:43;33.13;;;6.37;;
42972;SDS011;28610;51.214;6.962;2022-12-24T01:37:28;40.43;;;6.53;;
42972;SDS011;28610;51.214;6.962;2022-12-24T01:40:16;35.77;;;6.40;;
42972;SDS011;28610;51.214;6.962;2022-12-24T01:43:20;36.67;;;6.23;;
42972;SDS011;28610;51.214;6.962;2022-12-24T01:46:13;41.47;;;6.80;;
42972;SDS011;28610;51.214;6.962;2022-12-24T01:49:00;43.53;;;6.37;;
42972;SDS011;28610;51.214;6.962;2022-12-24T01:51:47;40.57;;;6.53;;
42972;SDS011;28610;51.214;6.962;2022-12-24T01:54:34;33.87;;;6.30;;
42972;SDS011;28610;51.214;6.962;2022-12-24T01:57:24;32.77;;;6.47;;
42972;SDS011;28610;51.214;6.962;2022-12-24T02:00:13;37.60;;;6.67;;
42972;SDS011;28610;51.214;6.962;2022-12-24T02:02:59;36.40;;;6.23;;
42972;SDS011;28610;51.214;6.962;2022-12-24T02:05:46;44.20;;;6.40;;
42972;SDS011;28610;51.214;6.962;2022-12-24T02:08:32;41.07;;;6.53;;
42972;SDS011;28610;51.214;6.962;2022-12-24T02:11:23;37.07;;;6.67;;
42972;SDS011;28610;51.214;6.962;2022-12-24T02:14:10;42.53;;;6.33;;
42972;SDS011;28610;51.214;6.962;2022-12-24T02:16:58;46.43;;;6.83;;
42972;SDS011;28610;51.214;6.962;2022-12-24T02:25:55;35.67;;;6.33;;
42972;SDS011;28610;51.214;6.962;2022-12-24T02:28:54;36.87;;;7.20;;
42972;SDS011;28610;51.214;6.962;2022-12-24T02:31:43;36.33;;;6.13;;
42972;SDS011;28610;51.214;6.962;2022-12-24T02:34:32;34.37;;;5.90;;
42972;SDS011;28610;51.214;6.962;2022-12-24T02:37:21;35.33;;;6.10;;
42972;SDS011;28610;51.214;6.962;2022-12-24T02:40:09;37.50;;;6.20;;
42972;SDS011;28610;51.214;6.962;2022-12-24T02:42:57;41.10;;;6.77;;
42972;SDS011;28610;51.214;6.962;2022-12-24T02:45:45;41.80;;;6.17;;
42972;SDS011;28610;51.214;6.962;2022-12-24T02:48:33;32.80;;;5.83;;
42972;SDS011;28610;51.214;6.962;2022-12-24T02:51:21;29.73;;;5.90;;
42972;SDS011;28610;51.214;6.962;2022-12-24T02:54:07;39.63;;;6.00;;
42972;SDS011;28610;51.214;6.962;2022-12-24T02:56:56;33.93;;;6.67;;
42972;SDS011;28610;51.214;6.962;2022-12-24T02:59:52;40.37;;;5.83;;
42972;SDS011;28610;51.214;6.962;2022-12-24T03:02:46;30.07;;;6.03;;
42972;SDS011;28610;51.214;6.962;2022-12-24T03:05:39;35.50;;;7.50;;
42972;SDS011;28610;51.214;6.962;2022-12-24T03:08:27;35.40;;;6.50;;
42972;SDS011;28610;51.214;6.962;2022-12-24T03:11:16;39.27;;;6.53;;
42972;SDS011;28610;51.214;6.962;2022-12-24T03:14:02;31.73;;;5.33;;
42972;SDS011;28610;51.214;6.962;2022-12-24T03:16:48;33.30;;;6.13;;
42972;SDS011;28610;51.214;6.962;2022-12-24T03:19:33;36.23;;;6.23;;
42972;SDS011;28610;51.214;6.962;2022-12-24T03:22:20;40.70;;;7.13;;
42972;SDS011;28610;51.214;6.962;2022-12-24T03:25:07;31.20;;;5.93;;
42972;SDS011;28610;51.214;6.962;2022-12-24T03:27:52;32.30;;;6.47;;
42972;SDS011;28610;51.214;6.962;2022-12-24T03:30:39;33.00;;;6.77;;
42972;SDS011;28610;51.214;6.962;2022-12-24T03:33:25;30.47;;;5.70;;
42972;SDS011;28610;51.214;6.962;2022-12-24T03:36:10;35.43;;;6.13;;
42972;SDS011;28610;51.214;6.962;2022-12-24T03:38:57;40.90;;;6.73;;
42972;SDS011;28610;51.214;6.962;2022-12-24T03:41:43;39.77;;;6.20;;
42972;SDS011;28610;51.214;6.962;2022-12-24T03:44:28;32.33;;;6.13;;
42972;SDS011;28610;51.214;6.962;2022-12-24T03:47:14;38.17;;;6.33;;
42972;SDS011;28610;51.214;6.962;2022-12-24T03:49:59;37.57;;;6.27;;
42972;SDS011;28610;51.214;6.962;2022-12-24T03:52:45;38.10;;;6.33;;
42972;SDS011;28610;51.214;6.962;2022-12-24T03:55:32;32.77;;;5.60;;
42972;SDS011;28610;51.214;6.962;2022-12-24T03:58:17;29.83;;;6.10;;
42972;SDS011;28610;51.214;6.962;2022-12-24T04:01:03;26.90;;;6.03;;
42972;SDS011;28610;51.214;6.962;2022-12-24T04:03:49;21.83;;;4.70;;
42972;SDS011;28610;51.214;6.962;2022-12-24T04:06:35;31.13;;;6.00;;
42972;SDS011;28610;51.214;6.962;2022-12-24T04:09:20;35.53;;;6.00;;
42972;SDS011;28610;51.214;6.962;2022-12-24T04:12:10;24.63;;;5.70;;
42972;SDS011;28610;51.214;6.962;2022-12-24T04:14:55;21.80;;;4.97;;
42972;SDS011;28610;51.214;6.962;2022-12-24T04:17:41;29.30;;;6.03;;
42972;SDS011;28610;51.214;6.962;2022-12-24T04:20:26;23.47;;;5.27;;
42972;SDS011;28610;51.214;6.962;2022-12-24T04:23:12;23.03;;;5.10;;
42972;SDS011;28610;51.214;6.962;2022-12-24T04:25:58;27.60;;;5.20;;
42972;SDS011;28610;51.214;6.962;2022-12-24T04:28:45;24.23;;;5.63;;
42972;SDS011;28610;51.214;6.962;2022-12-24T04:31:30;25.20;;;4.93;;
42972;SDS011;28610;51.214;6.962;2022-12-24T04:34:15;20.53;;;5.47;;
42972;SDS011;28610;51.214;6.962;2022-12-24T04:37:01;24.90;;;4.70;;
42972;SDS011;28610;51.214;6.962;2022-12-24T04:39:47;21.63;;;5.07;;
42972;SDS011;28610;51.214;6.962;2022-12-24T04:42:32;27.30;;;4.50;;
42972;SDS011;28610;51.214;6.962;2022-12-24T04:45:19;27.77;;;5.40;;
42972;SDS011;28610;51.214;6.962;2022-12-24T04:48:04;25.13;;;5.13;;
42972;SDS011;28610;51.214;6.962;2022-12-24T04:50:50;20.57;;;5.43;;
42972;SDS011;28610;51.214;6.962;2022-12-24T04:53:36;24.90;;;4.90;;
42972;SDS011;28610;51.214;6.962;2022-12-24T04:56:23;28.63;;;4.73;;
42972;SDS011;28610;51.214;6.962;2022-12-24T04:59:08;22.97;;;5.10;;
42972;SDS011;28610;51.214;6.962;2022-12-24T05:01:55;26.73;;;5.27;;
42972;SDS011;28610;51.214;6.962;2022-12-24T05:04:41;23.83;;;5.20;;
42972;SDS011;28610;51.214;6.962;2022-12-24T05:07:27;23.67;;;4.87;;
42972;SDS011;28610;51.214;6.962;2022-12-24T05:10:12;20.60;;;4.67;;
42972;SDS011;28610;51.214;6.962;2022-12-24T05:12:58;24.40;;;5.00;;
42972;SDS011;28610;51.214;6.962;2022-12-24T05:15:43;19.60;;;5.00;;
42972;SDS011;28610;51.214;6.962;2022-12-24T05:18:30;22.97;;;5.00;;
42972;SDS011;28610;51.214;6.962;2022-12-24T05:21:16;24.23;;;4.90;;
42972;SDS011;28610;51.214;6.962;2022-12-24T05:24:03;17.03;;;4.87;;
42972;SDS011;28610;51.214;6.962;2022-12-24T05:27:18;18.50;;;5.00;;
42972;SDS011;28610;51.214;6.962;2022-12-24T05:30:03;23.20;;;4.80;;
42972;SDS011;28610;51.214;6.962;2022-12-24T05:32:49;21.93;;;5.27;;
42972;SDS011;28610;51.214;6.962;2022-12-24T05:35:36;22.83;;;5.30;;
42972;SDS011;28610;51.214;6.962;2022-12-24T05:38:22;23.37;;;5.33;;
42972;SDS011;28610;51.214;6.962;2022-12-24T05:41:07;24.40;;;5.23;;
42972;SDS011;28610;51.214;6.962;2022-12-24T05:43:53;26.77;;;5.40;;
42972;SDS011;28610;51.214;6.962;2022-12-24T05:46:41;33.27;;;5.70;;
42972;SDS011;28610;51.214;6.962;2022-12-24T05:49:26;25.93;;;5.80;;
42972;SDS011;28610;51.214;6.962;2022-12-24T05:52:14;24.80;;;5.00;;
42972;SDS011;28610;51.214;6.962;2022-12-24T05:55:00;20.13;;;5.17;;
42972;SDS011;28610;51.214;6.962;2022-12-24T05:57:46;26.73;;;5.97;;
42972;SDS011;28610;51.214;6.962;2022-12-24T06:00:31;27.57;;;5.37;;
42972;SDS011;28610;51.214;6.962;2022-12-24T06:03:17;20.97;;;6.07;;
42972;SDS011;28610;51.214;6.962;2022-12-24T06:06:03;25.23;;;5.63;;
42972;SDS011;28610;51.214;6.962;2022-12-24T06:08:51;30.07;;;5.50;;
42972;SDS011;28610;51.214;6.962;2022-12-24T06:11:37;25.87;;;5.93;;
42972;SDS011;28610;51.214;6.962;2022-12-24T06:14:23;23.53;;;5.90;;
42972;SDS011;28610;51.214;6.962;2022-12-24T06:17:09;28.77;;;5.80;;
42972;SDS011;28610;51.214;6.962;2022-12-24T06:19:54;33.77;;;6.27;;
42972;SDS011;28610;51.214;6.962;2022-12-24T06:22:40;29.70;;;5.80;;
42972;SDS011;28610;51.214;6.962;2022-12-24T06:25:27;33.40;;;6.20;;
42972;SDS011;28610;51.214;6.962;2022-12-24T06:28:12;24.53;;;6.20;;
42972;SDS011;28610;51.214;6.962;2022-12-24T06:30:59;22.73;;;5.63;;
42972;SDS011;28610;51.214;6.962;2022-12-24T06:33:45;25.67;;;6.23;;
42972;SDS011;28610;51.214;6.962;2022-12-24T06:36:31;32.03;;;6.40;;
42972;SDS011;28610;51.214;6.962;2022-12-24T06:39:16;27.10;;;6.17;;
42972;SDS011;28610;51.214;6.962;2022-12-24T06:42:03;29.67;;;6.30;;
42972;SDS011;28610;51.214;6.962;2022-12-24T06:44:49;30.70;;;5.70;;
42972;SDS011;28610;51.214;6.962;2022-12-24T06:47:34;27.80;;;6.30;;
42972;SDS011;28610;51.214;6.962;2022-12-24T06:50:20;25.10;;;6.70;;
42972;SDS011;28610;51.214;6.962;2022-12-24T06:53:05;32.87;;;6.67;;
42972;SDS011;28610;51.214;6.962;2022-12-24T06:55:51;38.73;;;6.43;;
42972;SDS011;28610;51.214;6.962;2022-12-24T06:58:38;30.57;;;6.53;;
42972;SDS011;28610;51.214;6.962;2022-12-24T07:01:24;30.30;;;6.67;;
42972;SDS011;28610;51.214;6.962;2022-12-24T07:04:09;32.80;;;6.87;;
42972;SDS011;28610;51.214;6.962;2022-12-24T07:06:55;39.37;;;6.27;;
42972;SDS011;28610;51.214;6.962;2022-12-24T07:09:41;34.60;;;6.50;;
42972;SDS011;28610;51.214;6.962;2022-12-24T07:12:27;33.97;;;6.77;;
42972;SDS011;28610;51.214;6.962;2022-12-24T07:15:14;33.90;;;6.97;;
42972;SDS011;28610;51.214;6.962;2022-12-24T07:18:00;31.87;;;6.63;;
42972;SDS011;28610;51.214;6.962;2022-12-24T07:20:45;43.20;;;6.73;;
42972;SDS011;28610;51.214;6.962;2022-12-24T07:23:31;31.50;;;6.83;;
42972;SDS011;28610;51.214;6.962;2022-12-24T07:26:16;31.43;;;6.30;;
42972;SDS011;28610;51.214;6.962;2022-12-24T07:29:02;37.33;;;6.90;;
42972;SDS011;28610;51.214;6.962;2022-12-24T07:31:49;33.00;;;6.80;;
42972;SDS011;28610;51.214;6.962;2022-12-24T07:34:34;38.50;;;7.07;;
42972;SDS011;28610;51.214;6.962;2022-12-24T07:37:22;38.03;;;6.87;;
42972;SDS011;28610;51.214;6.962;2022-12-24T07:40:08;38.20;;;7.20;;
42972;SDS011;28610;51.214;6.962;2022-12-24T07:42:53;43.63;;;7.03;;
42972;SDS011;28610;51.214;6.962;2022-12-24T07:45:39;38.03;;;6.93;;
42972;SDS011;28610;51.214;6.962;2022-12-24T07:48:27;48.30;;;7.10;;
42972;SDS011;28610;51.214;6.962;2022-12-24T07:51:13;34.13;;;7.07;;
42972;SDS011;28610;51.214;6.962;2022-12-24T07:53:59;42.23;;;6.63;;
42972;SDS011;28610;51.214;6.962;2022-12-24T07:56:44;36.17;;;6.27;;
42972;SDS011;28610;51.214;6.962;2022-12-24T07:59:30;48.83;;;8.03;;
42972;SDS011;28610;51.214;6.962;2022-12-24T08:02:15;45.73;;;7.47;;
42972;SDS011;28610;51.214;6.962;2022-12-24T08:05:03;42.40;;;8.83;;
42972;SDS011;28610;51.214;6.962;2022-12-24T08:07:49;40.60;;;7.80;;
42972;SDS011;28610;51.214;6.962;2022-12-24T08:10:37;44.10;;;8.20;;
42972;SDS011;28610;51.214;6.962;2022-12-24T08:13:22;40.30;;;7.23;;
42972;SDS011;28610;51.214;6.962;2022-12-24T08:16:08;42.60;;;11.90;;
42972;SDS011;28610;51.214;6.962;2022-12-24T08:18:53;41.13;;;7.23;;
42972;SDS011;28610;51.214;6.962;2022-12-24T08:21:40;46.27;;;7.63;;
42972;SDS011;28610;51.214;6.962;2022-12-24T08:24:26;38.30;;;7.00;;
42972;SDS011;28610;51.214;6.962;2022-12-24T08:27:12;43.80;;;10.37;;
42972;SDS011;28610;51.214;6.962;2022-12-24T08:29:57;61.07;;;9.97;;
42972;SDS011;28610;51.214;6.962;2022-12-24T08:32:43;39.10;;;7.23;;
42972;SDS011;28610;51.214;6.962;2022-12-24T08:35:28;30.40;;;6.20;;
42972;SDS011;28610;51.214;6.962;2022-12-24T08:38:15;35.77;;;8.07;;
42972;SDS011;28610;51.214;6.962;2022-12-24T08:41:01;38.73;;;8.33;;
42972;SDS011;28610;51.214;6.962;2022-12-24T08:43:46;35.50;;;8.60;;
42972;SDS011;28610;51.214;6.962;2022-12-24T08:46:32;39.63;;;7.33;;
42972;SDS011;28610;51.214;6.962;2022-12-24T08:49:17;41.07;;;7.20;;
42972;SDS011;28610;51.214;6.962;2022-12-24T08:52:03;48.23;;;7.53;;
42972;SDS011;28610;51.214;6.962;2022-12-24T08:54:50;43.73;;;7.53;;
42972;SDS011;28610;51.214;6.962;2022-12-24T08:57:36;37.50;;;6.73;;
42972;SDS011;28610;51.214;6.962;2022-12-24T09:00:22;51.93;;;8.07;;
42972;SDS011;28610;51.214;6.962;2022-12-24T09:03:09;40.03;;;7.13;;
42972;SDS011;28610;51.214;6.962;2022-12-24T09:05:55;37.87;;;6.83;;
42972;SDS011;28610;51.214;6.962;2022-12-24T09:08:42;38.23;;;6.93;;
42972;SDS011;28610;51.214;6.962;2022-12-24T09:11:29;42.83;;;7.57;;
42972;SDS011;28610;51.214;6.962;2022-12-24T09:14:15;37.77;;;6.90;;
42972;SDS011;28610;51.214;6.962;2022-12-24T09:17:00;43.43;;;7.40;;
42972;SDS011;28610;51.214;6.962;2022-12-24T09:19:46;37.70;;;7.07;;
42972;SDS011;28610;51.214;6.962;2022-12-24T09:22:33;37.13;;;6.80;;
42972;SDS011;28610;51.214;6.962;2022-12-24T09:25:19;40.60;;;6.97;;
42972;SDS011;28610;51.214;6.962;2022-12-24T09:28:06;38.23;;;6.87;;
42972;SDS011;28610;51.214;6.962;2022-12-24T09:30:56;36.30;;;7.00;;
42972;SDS011;28610;51.214;6.962;2022-12-24T09:33:42;36.73;;;6.70;;
42972;SDS011;28610;51.214;6.962;2022-12-24T09:36:28;29.43;;;6.37;;
42972;SDS011;28610;51.214;6.962;2022-12-24T09:39:14;35.67;;;7.10;;
42972;SDS011;28610;51.214;6.962;2022-12-24T09:42:13;40.23;;;6.73;;
42972;SDS011;28610;51.214;6.962;2022-12-24T09:45:02;37.90;;;7.00;;
42972;SDS011;28610;51.214;6.962;2022-12-24T09:47:50;36.93;;;7.17;;
42972;SDS011;28610;51.214;6.962;2022-12-24T09:50:38;39.97;;;6.97;;
42972;SDS011;28610;51.214;6.962;2022-12-24T09:53:26;38.50;;;7.03;;
42972;SDS011;28610;51.214;6.962;2022-12-24T09:56:15;37.00;;;6.97;;
42972;SDS011;28610;51.214;6.962;2022-12-24T09:59:02;35.93;;;7.10;;
42972;SDS011;28610;51.214;6.962;2022-12-24T10:01:49;36.73;;;7.33;;
42972;SDS011;28610;51.214;6.962;2022-12-24T10:04:36;39.37;;;7.80;;
42972;SDS011;28610;51.214;6.962;2022-12-24T10:07:25;41.53;;;7.20;;
42972;SDS011;28610;51.214;6.962;2022-12-24T10:10:15;40.20;;;7.70;;
42972;SDS011;28610;51.214;6.962;2022-12-24T10:13:03;36.77;;;7.33;;
42972;SDS011;28610;51.214;6.962;2022-12-24T10:15:55;39.33;;;7.47;;
42972;SDS011;28610;51.214;6.962;2022-12-24T10:18:47;40.03;;;7.57;;
42972;SDS011;28610;51.214;6.962;2022-12-24T10:21:36;44.03;;;7.23;;
42972;SDS011;28610;51.214;6.962;2022-12-24T10:24:24;40.03;;;7.33;;
42972;SDS011;28610;51.214;6.962;2022-12-24T10:27:12;38.47;;;7.13;;
42972;SDS011;28610;51.214;6.962;2022-12-24T10:29:59;45.10;;;7.40;;
42972;SDS011;28610;51.214;6.962;2022-12-24T10:32:46;42.20;;;7.17;;
42972;SDS011;28610;51.214;6.962;2022-12-24T10:35:35;41.03;;;7.70;;
42972;SDS011;28610;51.214;6.962;2022-12-24T10:38:23;44.63;;;7.67;;
42972;SDS011;28610;51.214;6.962;2022-12-24T10:41:09;43.80;;;7.90;;
42972;SDS011;28610;51.214;6.962;2022-12-24T10:43:55;38.03;;;7.50;;
42972;SDS011;28610;51.214;6.962;2022-12-24T10:46:42;43.63;;;7.93;;
42972;SDS011;28610;51.214;6.962;2022-12-24T10:49:29;39.43;;;7.73;;
42972;SDS011;28610;51.214;6.962;2022-12-24T10:52:18;43.23;;;6.83;;
42972;SDS011;28610;51.214;6.962;2022-12-24T10:55:08;40.80;;;7.93;;
42972;SDS011;28610;51.214;6.962;2022-12-24T10:57:59;46.70;;;7.57;;
42972;SDS011;28610;51.214;6.962;2022-12-24T11:00:48;38.23;;;7.20;;
42972;SDS011;28610;51.214;6.962;2022-12-24T11:03:34;41.83;;;8.20;;
42972;SDS011;28610;51.214;6.962;2022-12-24T11:06:20;50.67;;;7.60;;
42972;SDS011;28610;51.214;6.962;2022-12-24T11:09:17;41.27;;;7.20;;
42972;SDS011;28610;51.214;6.962;2022-12-24T11:12:14;46.00;;;7.53;;
42972;SDS011;28610;51.214;6.962;2022-12-24T11:15:01;44.20;;;8.07;;
42972;SDS011;28610;51.214;6.962;2022-12-24T11:17:51;42.53;;;6.93;;
42972;SDS011;28610;51.214;6.962;2022-12-24T11:20:37;37.73;;;7.07;;
42972;SDS011;28610;51.214;6.962;2022-12-24T11:23:23;44.37;;;7.93;;
42972;SDS011;28610;51.214;6.962;2022-12-24T11:26:10;50.17;;;8.17;;
42972;SDS011;28610;51.214;6.962;2022-12-24T11:29:03;42.57;;;7.90;;
42972;SDS011;28610;51.214;6.962;2022-12-24T11:31:49;43.40;;;6.83;;
42972;SDS011;28610;51.214;6.962;2022-12-24T11:34:36;46.10;;;7.43;;
42972;SDS011;28610;51.214;6.962;2022-12-24T11:37:22;40.07;;;7.77;;
42972;SDS011;28610;51.214;6.962;2022-12-24T11:40:17;39.73;;;7.87;;
42972;SDS011;28610;51.214;6.962;2022-12-24T11:43:05;45.70;;;8.13;;
42972;SDS011;28610;51.214;6.962;2022-12-24T11:45:52;35.67;;;7.10;;
42972;SDS011;28610;51.214;6.962;2022-12-24T11:48:37;34.60;;;7.37;;
42972;SDS011;28610;51.214;6.962;2022-12-24T11:51:24;35.13;;;7.20;;
42972;SDS011;28610;51.214;6.962;2022-12-24T11:54:11;37.53;;;6.80;;
42972;SDS011;28610;51.214;6.962;2022-12-24T11:56:59;37.30;;;7.63;;
42972;SDS011;28610;51.214;6.962;2022-12-24T11:59:47;38.97;;;7.70;;
42972;SDS011;28610;51.214;6.962;2022-12-24T12:02:35;40.33;;;7.90;;
42972;SDS011;28610;51.214;6.962;2022-12-24T12:05:22;42.80;;;7.83;;
42972;SDS011;28610;51.214;6.962;2022-12-24T12:08:13;37.13;;;7.30;;
42972;SDS011;28610;51.214;6.962;2022-12-24T12:11:00;39.93;;;8.57;;
42972;SDS011;28610;51.214;6.962;2022-12-24T12:13:48;46.37;;;8.80;;
42972;SDS011;28610;51.214;6.962;2022-12-24T12:16:36;46.17;;;9.13;;
42972;SDS011;28610;51.214;6.962;2022-12-24T12:19:40;40.97;;;8.23;;
42972;SDS011;28610;51.214;6.962;2022-12-24T12:22:27;47.80;;;9.07;;
42972;SDS011;28610;51.214;6.962;2022-12-24T12:25:16;49.30;;;9.07;;
42972;SDS011;28610;51.214;6.962;2022-12-24T12:28:06;33.10;;;6.77;;
42972;SDS011;28610;51.214;6.962;2022-12-24T12:30:54;40.13;;;7.27;;
42972;SDS011;28610;51.214;6.962;2022-12-24T12:33:45;36.40;;;6.33;;
42972;SDS011;28610;51.214;6.962;2022-12-24T12:36:33;40.37;;;7.37;;
42972;SDS011;28610;51.214;6.962;2022-12-24T12:39:20;30.37;;;6.57;;
42972;SDS011;28610;51.214;6.962;2022-12-24T12:42:06;42.17;;;6.80;;
42972;SDS011;28610;51.214;6.962;2022-12-24T12:44:59;28.87;;;6.30;;
42972;SDS011;28610;51.214;6.962;2022-12-24T12:47:51;31.13;;;6.07;;
42972;SDS011;28610;51.214;6.962;2022-12-24T12:50:47;38.07;;;7.53;;
42972;SDS011;28610;51.214;6.962;2022-12-24T12:53:41;31.13;;;6.43;;
42972;SDS011;28610;51.214;6.962;2022-12-24T12:56:29;42.73;;;8.40;;
42972;SDS011;28610;51.214;6.962;2022-12-24T12:59:15;37.60;;;8.37;;
42972;SDS011;28610;51.214;6.962;2022-12-24T13:02:12;33.70;;;7.27;;
42972;SDS011;28610;51.214;6.962;2022-12-24T13:08:12;33.20;;;6.50;;
42972;SDS011;28610;51.214;6.962;2022-12-24T13:11:11;35.90;;;6.43;;
42972;SDS011;28610;51.214;6.962;2022-12-24T13:14:02;39.20;;;11.50;;
42972;SDS011;28610;51.214;6.962;2022-12-24T13:16:57;35.47;;;6.23;;
42972;SDS011;28610;51.214;6.962;2022-12-24T13:20:03;32.03;;;7.50;;
42972;SDS011;28610;51.214;6.962;2022-12-24T13:22:56;32.03;;;6.87;;
42972;SDS011;28610;51.214;6.962;2022-12-24T13:25:44;29.03;;;7.67;;
42972;SDS011;28610;51.214;6.962;2022-12-24T13:28:32;28.70;;;6.07;;
42972;SDS011;28610;51.214;6.962;2022-12-24T13:31:27;43.00;;;8.07;;
42972;SDS011;28610;51.214;6.962;2022-12-24T13:37:19;27.53;;;5.53;;
42972;SDS011;28610;51.214;6.962;2022-12-24T13:40:15;29.17;;;7.10;;
42972;SDS011;28610;51.214;6.962;2022-12-24T13:43:08;36.87;;;6.57;;
42972;SDS011;28610;51.214;6.962;2022-12-24T13:45:55;34.70;;;8.43;;
42972;SDS011;28610;51.214;6.962;2022-12-24T13:48:41;27.30;;;5.30;;
42972;SDS011;28610;51.214;6.962;2022-12-24T13:51:26;33.57;;;6.87;;
42972;SDS011;28610;51.214;6.962;2022-12-24T13:54:13;36.30;;;7.53;;
42972;SDS011;28610;51.214;6.962;2022-12-24T13:56:59;24.17;;;7.13;;
42972;SDS011;28610;51.214;6.962;2022-12-24T13:59:46;29.77;;;5.80;;
42972;SDS011;28610;51.214;6.962;2022-12-24T14:02:33;30.80;;;6.77;;
42972;SDS011;28610;51.214;6.962;2022-12-24T14:05:22;32.40;;;7.17;;
42972;SDS011;28610;51.214;6.962;2022-12-24T14:08:10;47.37;;;14.63;;
42972;SDS011;28610;51.214;6.962;2022-12-24T14:11:04;29.93;;;6.23;;
42972;SDS011;28610;51.214;6.962;2022-12-24T14:13:55;26.90;;;5.07;;
42972;SDS011;28610;51.214;6.962;2022-12-24T14:16:55;28.73;;;5.43;;
42972;SDS011;28610;51.214;6.962;2022-12-24T14:19:43;32.30;;;5.67;;
42972;SDS011;28610;51.214;6.962;2022-12-24T14:22:32;30.67;;;6.20;;
42972;SDS011;28610;51.214;6.962;2022-12-24T14:25:19;23.20;;;4.93;;
42972;SDS011;28610;51.214;6.962;2022-12-24T14:28:05;23.03;;;5.37;;
42972;SDS011;28610;51.214;6.962;2022-12-24T14:31:00;28.17;;;6.47;;
42972;SDS011;28610;51.214;6.962;2022-12-24T14:33:47;33.23;;;5.67;;
42972;SDS011;28610;51.214;6.962;2022-12-24T14:36:33;27.53;;;5.23;;
42972;SDS011;28610;51.214;6.962;2022-12-24T14:39:21;24.53;;;5.70;;
42972;SDS011;28610;51.214;6.962;2022-12-24T14:42:11;26.57;;;5.50;;
42972;SDS011;28610;51.214;6.962;2022-12-24T14:45:05;31.83;;;5.33;;
42972;SDS011;28610;51.214;6.962;2022-12-24T14:47:56;29.00;;;5.40;;
42972;SDS011;28610;51.214;6.962;2022-12-24T14:50:54;31.97;;;5.90;;
42972;SDS011;28610;51.214;6.962;2022-12-24T14:53:46;26.43;;;5.43;;
42972;SDS011;28610;51.214;6.962;2022-12-24T14:56:38;24.87;;;6.03;;
42972;SDS011;28610;51.214;6.962;2022-12-24T14:59:25;32.77;;;6.20;;
42972;SDS011;28610;51.214;6.962;2022-12-24T15:05:23;27.10;;;6.17;;
42972;SDS011;28610;51.214;6.962;2022-12-24T15:08:15;29.73;;;7.13;;
42972;SDS011;28610;51.214;6.962;2022-12-24T15:11:02;29.33;;;6.70;;
42972;SDS011;28610;51.214;6.962;2022-12-24T15:13:49;31.63;;;6.33;;
42972;SDS011;28610;51.214;6.962;2022-12-24T15:16:36;40.07;;;6.83;;
42972;SDS011;28610;51.214;6.962;2022-12-24T15:19:23;25.30;;;6.80;;
42972;SDS011;28610;51.214;6.962;2022-12-24T15:22:27;33.20;;;7.50;;
42972;SDS011;28610;51.214;6.962;2022-12-24T15:25:19;33.10;;;8.43;;
42972;SDS011;28610;51.214;6.962;2022-12-24T15:28:13;35.73;;;8.70;;
42972;SDS011;28610;51.214;6.962;2022-12-24T15:31:03;36.87;;;7.27;;
42972;SDS011;28610;51.214;6.962;2022-12-24T15:33:49;37.70;;;8.40;;
42972;SDS011;28610;51.214;6.962;2022-12-24T15:36:35;36.67;;;8.63;;
42972;SDS011;28610;51.214;6.962;2022-12-24T15:39:21;47.67;;;13.27;;
42972;SDS011;28610;51.214;6.962;2022-12-24T15:42:09;32.90;;;10.27;;
42972;SDS011;28610;51.214;6.962;2022-12-24T15:44:59;42.53;;;9.50;;
42972;SDS011;28610;51.214;6.962;2022-12-24T15:47:46;35.30;;;7.87;;
42972;SDS011;28610;51.214;6.962;2022-12-24T15:50:33;32.20;;;7.53;;
42972;SDS011;28610;51.214;6.962;2022-12-24T15:53:23;37.50;;;8.17;;
42972;SDS011;28610;51.214;6.962;2022-12-24T15:56:11;37.53;;;8.00;;
42972;SDS011;28610;51.214;6.962;2022-12-24T15:59:11;38.27;;;8.47;;
42972;SDS011;28610;51.214;6.962;2022-12-24T16:07:58;43.63;;;11.33;;
42972;SDS011;28610;51.214;6.962;2022-12-24T16:10:52;38.03;;;9.20;;
42972;SDS011;28610;51.214;6.962;2022-12-24T16:13:39;33.97;;;9.10;;
42972;SDS011;28610;51.214;6.962;2022-12-24T16:16:31;31.37;;;8.10;;
42972;SDS011;28610;51.214;6.962;2022-12-24T16:19:19;42.23;;;8.57;;
42972;SDS011;28610;51.214;6.962;2022-12-24T16:22:08;38.57;;;10.57;;
42972;SDS011;28610;51.214;6.962;2022-12-24T16:25:19;42.43;;;15.00;;
42972;SDS011;28610;51.214;6.962;2022-12-24T16:28:07;38.73;;;9.70;;
42972;SDS011;28610;51.214;6.962;2022-12-24T16:30:55;41.30;;;14.33;;
42972;SDS011;28610;51.214;6.962;2022-12-24T16:33:42;51.13;;;16.77;;
42972;SDS011;28610;51.214;6.962;2022-12-24T16:36:29;50.03;;;16.57;;
42972;SDS011;28610;51.214;6.962;2022-12-24T16:39:14;54.00;;;17.90;;
42972;SDS011;28610;51.214;6.962;2022-12-24T16:42:07;46.57;;;18.10;;
42972;SDS011;28610;51.214;6.962;2022-12-24T16:45:10;58.50;;;20.93;;
42972;SDS011;28610;51.214;6.962;2022-12-24T16:47:56;56.67;;;22.97;;
42972;SDS011;28610;51.214;6.962;2022-12-24T16:50:43;63.87;;;22.90;;
42972;SDS011;28610;51.214;6.962;2022-12-24T16:53:29;57.20;;;22.20;;
42972;SDS011;28610;51.214;6.962;2022-12-24T16:56:14;47.77;;;16.50;;